Time;durP1;ratioP1;P1;durP2;ratioP2;P2;SDS_P1;SDS_P2;PMS_P1;PMS_P2;Temp;Humidity;BMP_temperature;BMP_pressure;BME280_temperature;BME280_humidity;BME280_pressure;Samples;Min_cycle;Max_cycle;Signal;HPM_P1;HPM_P2
2021/03/22 00:09:03;;;;;;;33.97;7.15;;;;;;;4.64;71.64;100812.38;20900428;28;20052;-71
2021/03/22 00:19:04;;;;;;;32.55;6.28;;;;;;;4.57;72.41;100819.44;20900858;28;20045;-71
2021/03/22 00:29:05;;;;;;;24.33;6.00;;;;;;;4.61;71.92;100802.94;20897337;28;20045;-72
2021/03/22 00:39:06;;;;;;;30.33;6.70;;;;;;;4.65;72.47;100793.34;20900220;28;20076;-71
2021/03/22 00:49:07;;;;;;;26.33;6.50;;;;;;;4.56;72.35;100803.94;20898949;28;20116;-72
2021/03/22 00:59:08;;;;;;;27.80;6.60;;;;;;;4.52;72.21;100792.75;20890144;28;20544;-73
2021/03/22 01:09:09;;;;;;;27.48;6.85;;;;;;;4.59;72.57;100788.28;20891276;28;20481;-71
2021/03/22 01:19:14;;;;;;;31.77;7.13;;;;;;;4.45;73.28;100780.00;20894508;28;20417;-71
2021/03/22 01:29:25;;;;;;;28.15;6.68;;;;;;;4.37;72.87;100769.78;20895773;28;20554;-73
2021/03/22 01:39:29;;;;;;;26.00;5.60;;;;;;;4.30;72.57;100763.91;20895920;28;20038;-70
2021/03/22 01:49:38;;;;;;;30.65;6.28;;;;;;;4.26;72.23;100759.69;20922919;28;20476;-71
2021/03/22 01:59:39;;;;;;;24.65;5.63;;;;;;;4.25;72.15;100762.31;20916067;28;20045;-72
2021/03/22 02:09:40;;;;;;;25.98;5.97;;;;;;;4.35;72.36;100762.97;20891544;28;20049;-71
2021/03/22 02:20:09;;;;;;;26.30;5.40;;;;;;;4.22;71.79;100765.81;20915132;28;20063;-72
2021/03/22 02:30:47;;;;;;;28.27;4.80;;;;;;;4.34;70.91;100771.63;20903233;28;20041;-73
2021/03/22 02:41:15;;;;;;;23.67;4.75;;;;;;;4.20;71.47;100774.53;20895994;28;20534;-72
2021/03/22 02:51:33;;;;;;;24.10;4.32;;;;;;;4.27;70.11;100770.88;20905633;28;20504;-72
2021/03/22 03:01:41;;;;;;;25.58;5.10;;;;;;;4.20;70.02;100770.19;20906307;28;20060;-72
2021/03/22 03:11:43;;;;;;;26.88;5.03;;;;;;;4.19;70.62;100776.25;20908379;28;20501;-72
2021/03/22 03:21:44;;;;;;;28.15;4.95;;;;;;;4.16;70.91;100788.44;20910458;28;20491;-73
2021/03/22 03:31:45;;;;;;;28.73;4.93;;;;;;;4.11;70.57;100791.13;20879059;28;20045;-72
2021/03/22 03:41:46;;;;;;;24.13;5.05;;;;;;;4.12;70.93;100790.22;20875723;28;20091;-71
2021/03/22 03:51:47;;;;;;;24.40;4.63;;;;;;;4.02;71.00;100796.47;20900891;28;20463;-72
2021/03/22 04:01:48;;;;;;;24.98;4.90;;;;;;;4.14;71.38;100795.38;20905562;28;20053;-71
2021/03/22 04:11:50;;;;;;;25.77;4.65;;;;;;;4.13;70.52;100802.28;20904888;28;20575;-72
2021/03/22 04:21:51;;;;;;;19.63;4.18;;;;;;;4.06;70.25;100792.97;20867041;28;20060;-73
2021/03/22 04:31:52;;;;;;;24.88;4.68;;;;;;;4.14;70.18;100796.22;20878867;28;20044;-71
2021/03/22 04:41:54;;;;;;;15.63;3.67;;;;;;;4.04;69.68;100799.03;20901690;28;20056;-71
2021/03/22 04:51:54;;;;;;;29.23;4.15;;;;;;;4.06;70.52;100808.50;20900956;28;20053;-72
2021/03/22 05:01:55;;;;;;;14.82;4.05;;;;;;;4.07;70.14;100810.19;20897581;28;20055;-71
2021/03/22 05:11:57;;;;;;;20.50;3.75;;;;;;;4.02;70.52;100826.69;20888395;28;20132;-72
2021/03/22 05:21:59;;;;;;;20.10;3.88;;;;;;;3.98;70.08;100825.91;20861672;28;20049;-72
2021/03/22 05:32:00;;;;;;;22.15;3.50;;;;;;;3.99;71.46;100826.78;20868220;28;20440;-71
2021/03/22 05:42:26;;;;;;;24.48;3.60;;;;;;;3.97;70.78;100839.75;20885017;28;20524;-72
2021/03/22 05:52:37;;;;;;;13.05;2.88;;;;;;;3.94;71.19;100847.59;20891242;28;20053;-72
2021/03/22 06:03:31;;;;;;;19.80;3.60;;;;;;;3.99;71.33;100860.44;20892427;28;20064;-71
2021/03/22 06:13:41;;;;;;;19.75;2.97;;;;;;;4.03;72.01;100864.66;20797244;28;20041;-71
2021/03/22 06:23:45;;;;;;;26.52;5.75;;;;;;;4.03;70.73;100875.03;20843909;28;20049;-71
2021/03/22 06:33:52;;;;;;;29.02;16.35;;;;;;;4.12;70.38;100873.09;20899458;28;20060;-71
2021/03/22 06:43:55;;;;;;;28.88;16.58;;;;;;;4.23;69.93;100880.66;20909175;28;20477;-71
2021/03/22 06:54:00;;;;;;;;;;;;;;;4.23;71.21;100886.69;20908033;28;20094;-71
2021/03/22 07:04:31;;;;;;;18.90;3.08;;;;;;;4.40;71.10;100890.69;20882454;28;20296;-70
2021/03/22 07:14:32;;;;;;;17.90;2.92;;;;;;;4.59;70.58;100889.41;20903126;28;20512;-69
2021/03/22 07:24:37;;;;;;;12.50;3.30;;;;;;;4.67;70.20;100895.28;20891183;28;20048;-68
2021/03/22 07:34:41;;;;;;;16.23;2.97;;;;;;;4.80;70.12;100911.41;20892017;28;20045;-71
2021/03/22 07:45:11;;;;;;;17.48;3.20;;;;;;;4.92;69.74;100908.53;20898739;28;20513;-69
2021/03/22 07:55:37;;;;;;;14.73;3.22;;;;;;;4.96;68.65;100923.16;20909062;28;20118;-69
2021/03/22 08:06:02;;;;;;;17.08;3.20;;;;;;;5.21;68.76;100915.63;20896047;28;20033;-69
2021/03/22 08:16:32;;;;;;;15.13;3.07;;;;;;;5.25;68.46;100930.25;20864380;28;20045;-70
2021/03/22 08:26:42;;;;;;;14.13;3.40;;;;;;;5.18;68.29;100943.34;20896123;28;20086;-69
2021/03/22 08:36:49;;;;;;;19.10;3.22;;;;;;;5.46;67.94;100953.09;20881414;28;20045;-69
2021/03/22 08:47:14;;;;;;;14.25;3.25;;;;;;;5.38;67.80;100962.81;20888680;28;20390;-69
2021/03/22 08:57:26;;;;;;;18.47;3.80;;;;;;;5.38;67.96;100971.44;20884951;28;20045;-69
2021/03/22 09:07:31;;;;;;;14.23;3.40;;;;;;;5.48;68.10;100975.53;20881466;28;20091;-70
2021/03/22 09:17:58;;;;;;;;;;;;;;;5.72;66.63;100987.06;20884245;28;20091;-69
2021/03/22 09:28:49;;;;;;;13.85;3.25;;;;;;;5.90;66.02;100988.34;20921265;28;19970;-69
2021/03/22 09:38:50;;;;;;;15.52;3.65;;;;;;;6.08;65.52;100989.63;20696778;28;20167;-70
2021/03/22 09:49:10;;;;;;;16.13;3.42;;;;;;;5.88;66.55;100990.16;20901190;28;20100;-70
2021/03/22 09:59:32;;;;;;;12.02;3.25;;;;;;;6.08;65.57;100997.44;20909565;28;20045;-70
2021/03/22 10:09:54;;;;;;;11.88;3.25;;;;;;;6.23;65.42;100999.63;20913412;28;20037;-70
2021/03/22 10:20:17;;;;;;;9.38;3.08;;;;;;;6.20;64.86;101015.28;20906521;28;20067;-70
2021/03/22 10:30:23;;;;;;;13.85;3.35;;;;;;;6.24;64.70;101011.72;20910783;28;20045;-70
2021/03/22 10:40:32;;;;;;;17.08;3.58;;;;;;;6.30;65.77;101009.78;20914169;28;20045;-70
2021/03/22 10:50:37;;;;;;;10.65;4.00;;;;;;;6.48;64.03;101000.66;20893697;28;20409;-70
2021/03/22 11:00:45;;;;;;;14.82;3.78;;;;;;;6.54;64.05;101007.44;20890294;28;20051;-70
2021/03/22 11:11:07;;;;;;;15.63;3.80;;;;;;;6.45;64.55;101013.72;20876036;28;20052;-71
2021/03/22 11:21:09;;;;;;;11.35;4.00;;;;;;;6.14;65.44;101018.06;20904633;28;20052;-70
2021/03/22 11:31:25;;;;;;;14.45;4.03;;;;;;;6.29;65.91;101015.91;20912803;28;20049;-70
2021/03/22 11:41:45;;;;;;;10.77;3.55;;;;;;;6.43;64.44;101011.19;20898528;28;20045;-70
2021/03/22 11:51:50;;;;;;;11.82;3.78;;;;;;;6.65;63.24;100995.84;20909330;28;20068;-70
2021/03/22 12:02:05;;;;;;;11.07;3.90;;;;;;;6.80;63.24;101008.41;20907134;28;20048;-70
2021/03/22 12:12:15;;;;;;;8.10;3.08;;;;;;;6.92;60.41;100998.53;20901749;28;20588;-71
2021/03/22 12:22:18;;;;;;;11.13;3.42;;;;;;;6.84;61.02;100996.16;20896205;28;20041;-70
2021/03/22 12:32:24;;;;;;;7.35;3.20;;;;;;;6.90;61.97;101000.34;20883499;28;20041;-71
2021/03/22 12:42:28;;;;;;;11.75;3.38;;;;;;;6.74;62.80;100998.19;20903674;28;20175;-70
2021/03/22 12:52:29;;;;;;;7.63;3.15;;;;;;;6.88;62.96;101003.81;20907215;28;20514;-70
2021/03/22 13:02:32;;;;;;;7.30;2.80;;;;;;;7.08;61.90;100987.59;20921345;28;20116;-71
2021/03/22 13:12:35;;;;;;;9.70;2.60;;;;;;;7.20;59.85;100994.19;20915424;28;20050;-71
2021/03/22 13:22:36;;;;;;;9.35;3.08;;;;;;;7.31;59.92;100989.53;20912116;28;20045;-71
2021/03/22 13:32:55;;;;;;;9.88;3.63;;;;;;;7.81;59.01;100979.19;20892440;28;20072;-71
2021/03/22 13:42:57;;;;;;;8.23;2.65;;;;;;;7.49;58.67;100985.47;20913341;28;20056;-71
2021/03/22 13:53:00;;;;;;;8.25;2.92;;;;;;;7.21;59.42;100990.72;20917778;28;20052;-71
2021/03/22 14:03:09;;;;;;;6.43;3.03;;;;;;;6.98;61.68;101001.81;20912604;28;20119;-72
2021/03/22 14:13:10;;;;;;;7.45;2.40;;;;;;;7.08;61.75;100995.41;20905115;28;20045;-71
2021/03/22 14:23:14;;;;;;;7.25;2.65;;;;;;;7.21;62.61;101001.13;20910391;28;20106;-71
2021/03/22 14:33:22;;;;;;;8.48;2.55;;;;;;;7.16;63.23;101003.84;20909713;28;20045;-71
2021/03/22 14:43:23;;;;;;;9.40;2.63;;;;;;;6.88;63.58;101008.19;20883951;28;20045;-72
2021/03/22 14:53:25;;;;;;;8.60;2.92;;;;;;;6.83;64.07;101013.50;20905459;28;20049;-70
2021/03/22 15:03:26;;;;;;;8.60;2.83;;;;;;;6.92;63.67;101004.56;20900920;28;20079;-69
2021/03/22 15:13:27;;;;;;;10.00;3.20;;;;;;;7.00;64.21;101000.03;20908251;28;20120;-69
2021/03/22 15:23:30;;;;;;;7.43;2.55;;;;;;;7.06;63.59;100996.38;20885499;28;20128;-69
2021/03/22 15:33:37;;;;;;;11.50;3.20;;;;;;;7.21;62.32;100995.91;20907325;28;20107;-69
2021/03/22 15:43:40;;;;;;;7.80;2.70;;;;;;;7.07;63.33;101005.88;20880497;28;20048;-69
2021/03/22 15:53:42;;;;;;;10.32;2.92;;;;;;;6.93;62.62;100998.47;20905462;28;20041;-69
2021/03/22 16:03:43;;;;;;;12.00;3.40;;;;;;;7.21;62.65;100998.50;20904790;28;20049;-68
2021/03/22 16:13:44;;;;;;;12.27;3.63;;;;;;;7.02;63.29;101020.78;20902656;28;20124;-68
2021/03/22 16:23:45;;;;;;;9.40;3.40;;;;;;;6.92;62.94;101015.00;20900254;28;20053;-69
2021/03/22 16:33:48;;;;;;;8.35;2.97;;;;;;;6.73;63.82;101034.63;20902971;28;20048;-70
2021/03/22 16:43:50;;;;;;;10.88;2.60;;;;;;;6.62;64.93;101042.72;20904717;28;20079;-69
2021/03/22 16:53:52;;;;;;;7.72;2.42;;;;;;;6.66;66.17;101048.69;20907126;28;20489;-70
2021/03/22 17:03:54;;;;;;;7.82;3.15;;;;;;;6.54;67.47;101049.91;20905338;28;20405;-70
2021/03/22 17:13:57;;;;;;;10.20;3.25;;;;;;;6.46;69.16;101070.03;20892358;28;20132;-69
2021/03/22 17:23:58;;;;;;;8.75;3.97;;;;;;;6.38;70.60;101074.59;20901479;28;20303;-71
2021/03/22 17:33:59;;;;;;;8.23;3.72;;;;;;;6.28;71.16;101075.75;20891839;28;20045;-70
2021/03/22 17:44:00;;;;;;;11.50;5.25;;;;;;;6.24;71.38;101097.50;20875101;28;20045;-71
2021/03/22 17:54:01;;;;;;;11.25;4.38;;;;;;;6.18;75.47;101103.72;20871334;28;20049;-70
2021/03/22 18:04:03;;;;;;;14.25;6.65;;;;;;;6.11;81.02;101116.88;20892619;28;20602;-71
2021/03/22 18:14:05;;;;;;;15.05;6.63;;;;;;;6.12;79.42;101129.00;20899570;28;20456;-71
2021/03/22 18:24:06;;;;;;;13.27;6.20;;;;;;;6.09;80.92;101129.06;20907862;28;20075;-70
2021/03/22 18:34:08;;;;;;;16.20;8.32;;;;;;;5.94;82.16;101151.91;20942997;28;20052;-71
2021/03/22 18:44:09;;;;;;;18.45;10.23;;;;;;;5.93;80.41;101165.81;20936576;28;20132;-70
2021/03/22 18:54:11;;;;;;;16.48;9.05;;;;;;;5.88;81.42;101172.88;20905739;28;20045;-71
2021/03/22 19:04:12;;;;;;;18.23;9.32;;;;;;;5.84;80.97;101181.56;20903495;28;20037;-70
2021/03/22 19:14:13;;;;;;;28.52;16.55;;;;;;;5.78;81.17;101186.91;20906723;28;20150;-71
2021/03/22 19:24:14;;;;;;;16.77;8.05;;;;;;;5.74;80.19;101190.44;20908648;28;20052;-70
2021/03/22 19:34:15;;;;;;;18.52;8.70;;;;;;;5.63;80.20;101208.03;20897025;28;20068;-70
2021/03/22 19:44:16;;;;;;;16.52;8.32;;;;;;;5.60;81.52;101214.13;20902049;28;20045;-71
2021/03/22 19:54:17;;;;;;;28.33;11.77;;;;;;;5.52;82.80;101216.03;20889348;28;20132;-71
2021/03/22 20:04:18;;;;;;;17.35;8.43;;;;;;;5.50;84.21;101228.19;20867620;28;20041;-71
2021/03/22 20:14:19;;;;;;;14.90;7.90;;;;;;;5.42;83.68;101227.50;20900776;28;20068;-71
2021/03/22 20:24:22;;;;;;;15.80;8.30;;;;;;;5.44;84.65;101217.03;20901188;28;20099;-70
2021/03/22 20:34:23;;;;;;;31.35;14.52;;;;;;;5.40;83.79;101225.78;20897914;28;20037;-71
2021/03/22 20:44:24;;;;;;;24.60;11.85;;;;;;;5.38;83.91;101220.66;20900644;28;20511;-70
2021/03/22 20:54:25;;;;;;;20.38;10.27;;;;;;;5.35;84.20;101212.03;20900713;28;20447;-71
2021/03/22 21:04:26;;;;;;;19.83;8.95;;;;;;;5.29;82.66;101217.34;20899238;28;20099;-71
2021/03/22 21:14:30;;;;;;;19.45;8.65;;;;;;;5.27;83.04;101216.53;20900691;28;20488;-71
2021/03/22 21:24:31;;;;;;;25.77;12.82;;;;;;;5.24;82.40;101217.44;20899019;28;20459;-71
2021/03/22 21:34:33;;;;;;;26.90;11.98;;;;;;;5.17;82.00;101218.47;20903202;28;20045;-71
2021/03/22 21:44:34;;;;;;;21.55;10.70;;;;;;;5.15;82.52;101215.03;20901868;28;20136;-71
2021/03/22 21:54:35;;;;;;;22.83;9.55;;;;;;;5.14;82.35;101215.91;20889553;28;20090;-71
2021/03/22 22:04:36;;;;;;;16.80;7.82;;;;;;;5.11;83.56;101214.25;20903312;28;20037;-71
2021/03/22 22:14:37;;;;;;;19.95;8.27;;;;;;;5.08;83.23;101216.88;20906007;28;20045;-71
2021/03/22 22:24:41;;;;;;;15.68;8.27;;;;;;;5.07;82.33;101210.00;20899289;28;20041;-71
2021/03/22 22:34:42;;;;;;;18.50;8.25;;;;;;;5.05;82.75;101208.31;20881791;28;20099;-70
2021/03/22 22:44:43;;;;;;;17.17;8.60;;;;;;;5.03;82.94;101205.72;20908956;28;20128;-71
2021/03/22 22:54:44;;;;;;;18.77;8.32;;;;;;;4.93;81.88;101204.19;20902935;28;20099;-71
2021/03/22 23:04:45;;;;;;;19.45;8.15;;;;;;;4.95;82.52;101215.41;20906608;28;20048;-71
2021/03/22 23:14:46;;;;;;;21.00;8.25;;;;;;;4.93;81.86;101211.13;20907081;28;20049;-71
2021/03/22 23:24:47;;;;;;;22.77;9.40;;;;;;;4.93;83.49;101219.75;20896960;28;20120;-71
2021/03/22 23:34:48;;;;;;;22.33;9.63;;;;;;;4.93;82.76;101214.56;20903868;28;20040;-71
2021/03/22 23:44:49;;;;;;;21.00;9.00;;;;;;;4.93;82.88;101219.75;20890634;28;20107;-71
2021/03/22 23:54:50;;;;;;;23.80;10.90;;;;;;;4.91;83.42;101218.94;20873488;28;20045;-71
